sensor_id;sensor_type;location;lat;lon;timestamp;P1;durP1;ratioP1;P2;durP2;ratioP2
42632;SDS011;28261;53.304;-6.284;2023-05-29T00:01:38;7.22;;;2.30;;
42632;SDS011;28261;53.304;-6.284;2023-05-29T00:03:42;10.50;;;2.75;;
42632;SDS011;28261;53.304;-6.284;2023-05-29T00:05:46;11.80;;;2.40;;
42632;SDS011;28261;53.304;-6.284;2023-05-29T00:07:50;9.68;;;2.38;;
42632;SDS011;28261;53.304;-6.284;2023-05-29T00:09:54;8.65;;;2.53;;
42632;SDS011;28261;53.304;-6.284;2023-05-29T00:11:57;10.40;;;2.47;;
42632;SDS011;28261;53.304;-6.284;2023-05-29T00:14:02;13.30;;;3.20;;
42632;SDS011;28261;53.304;-6.284;2023-05-29T00:16:05;14.93;;;4.20;;
42632;SDS011;28261;53.304;-6.284;2023-05-29T00:18:11;10.00;;;2.83;;
42632;SDS011;28261;53.304;-6.284;2023-05-29T00:20:14;10.57;;;2.13;;
42632;SDS011;28261;53.304;-6.284;2023-05-29T00:22:18;10.68;;;2.20;;
42632;SDS011;28261;53.304;-6.284;2023-05-29T00:24:21;14.27;;;2.85;;
42632;SDS011;28261;53.304;-6.284;2023-05-29T00:26:25;9.82;;;2.35;;
42632;SDS011;28261;53.304;-6.284;2023-05-29T00:28:29;10.55;;;2.92;;
42632;SDS011;28261;53.304;-6.284;2023-05-29T00:30:34;8.88;;;3.03;;
42632;SDS011;28261;53.304;-6.284;2023-05-29T00:32:37;8.55;;;2.00;;
42632;SDS011;28261;53.304;-6.284;2023-05-29T00:34:41;8.43;;;2.50;;
42632;SDS011;28261;53.304;-6.284;2023-05-29T00:36:45;10.05;;;2.97;;
42632;SDS011;28261;53.304;-6.284;2023-05-29T00:38:49;16.30;;;2.60;;
42632;SDS011;28261;53.304;-6.284;2023-05-29T00:40:52;8.52;;;2.53;;
42632;SDS011;28261;53.304;-6.284;2023-05-29T00:42:56;9.75;;;2.75;;
42632;SDS011;28261;53.304;-6.284;2023-05-29T00:44:59;6.38;;;2.40;;
42632;SDS011;28261;53.304;-6.284;2023-05-29T00:47:04;10.73;;;2.10;;
42632;SDS011;28261;53.304;-6.284;2023-05-29T00:49:09;13.68;;;2.90;;
42632;SDS011;28261;53.304;-6.284;2023-05-29T00:51:13;13.02;;;2.40;;
42632;SDS011;28261;53.304;-6.284;2023-05-29T00:53:18;12.88;;;2.58;;
42632;SDS011;28261;53.304;-6.284;2023-05-29T00:55:22;8.50;;;2.67;;
42632;SDS011;28261;53.304;-6.284;2023-05-29T00:57:26;10.52;;;2.50;;
42632;SDS011;28261;53.304;-6.284;2023-05-29T00:59:31;10.05;;;2.03;;
42632;SDS011;28261;53.304;-6.284;2023-05-29T01:01:36;9.85;;;2.38;;
42632;SDS011;28261;53.304;-6.284;2023-05-29T01:03:42;11.48;;;2.20;;
42632;SDS011;28261;53.304;-6.284;2023-05-29T01:05:47;8.52;;;2.50;;
42632;SDS011;28261;53.304;-6.284;2023-05-29T01:07:50;11.80;;;2.55;;
42632;SDS011;28261;53.304;-6.284;2023-05-29T01:09:54;13.82;;;3.42;;
42632;SDS011;28261;53.304;-6.284;2023-05-29T01:11:58;6.75;;;2.42;;
42632;SDS011;28261;53.304;-6.284;2023-05-29T01:14:13;13.32;;;2.50;;
42632;SDS011;28261;53.304;-6.284;2023-05-29T01:16:30;12.02;;;2.67;;
42632;SDS011;28261;53.304;-6.284;2023-05-29T01:18:39;6.53;;;2.22;;
42632;SDS011;28261;53.304;-6.284;2023-05-29T01:20:52;9.13;;;2.13;;
42632;SDS011;28261;53.304;-6.284;2023-05-29T01:23:07;6.55;;;1.90;;
42632;SDS011;28261;53.304;-6.284;2023-05-29T01:25:28;13.75;;;2.85;;
42632;SDS011;28261;53.304;-6.284;2023-05-29T01:27:39;8.52;;;2.40;;
42632;SDS011;28261;53.304;-6.284;2023-05-29T01:29:44;11.27;;;1.83;;
42632;SDS011;28261;53.304;-6.284;2023-05-29T01:31:50;12.07;;;2.60;;
42632;SDS011;28261;53.304;-6.284;2023-05-29T01:33:55;6.82;;;2.08;;
42632;SDS011;28261;53.304;-6.284;2023-05-29T01:36:00;12.43;;;2.60;;
42632;SDS011;28261;53.304;-6.284;2023-05-29T01:38:03;18.50;;;2.95;;
42632;SDS011;28261;53.304;-6.284;2023-05-29T01:40:07;12.52;;;2.30;;
42632;SDS011;28261;53.304;-6.284;2023-05-29T01:42:11;11.65;;;2.28;;
42632;SDS011;28261;53.304;-6.284;2023-05-29T01:44:17;9.73;;;2.72;;
42632;SDS011;28261;53.304;-6.284;2023-05-29T01:46:22;14.63;;;2.60;;
42632;SDS011;28261;53.304;-6.284;2023-05-29T01:48:27;12.80;;;2.65;;
42632;SDS011;28261;53.304;-6.284;2023-05-29T01:50:32;12.15;;;3.60;;
42632;SDS011;28261;53.304;-6.284;2023-05-29T01:52:37;8.43;;;2.03;;
42632;SDS011;28261;53.304;-6.284;2023-05-29T01:54:40;9.50;;;2.60;;
42632;SDS011;28261;53.304;-6.284;2023-05-29T01:56:44;15.63;;;3.78;;
42632;SDS011;28261;53.304;-6.284;2023-05-29T01:58:49;15.10;;;3.10;;
42632;SDS011;28261;53.304;-6.284;2023-05-29T02:00:55;14.50;;;3.25;;
42632;SDS011;28261;53.304;-6.284;2023-05-29T02:02:59;11.77;;;3.65;;
42632;SDS011;28261;53.304;-6.284;2023-05-29T02:05:04;11.48;;;3.05;;
42632;SDS011;28261;53.304;-6.284;2023-05-29T02:07:09;12.00;;;3.03;;
42632;SDS011;28261;53.304;-6.284;2023-05-29T02:09:13;20.15;;;3.70;;
42632;SDS011;28261;53.304;-6.284;2023-05-29T02:11:18;14.48;;;3.42;;
42632;SDS011;28261;53.304;-6.284;2023-05-29T02:13:22;11.40;;;2.65;;
42632;SDS011;28261;53.304;-6.284;2023-05-29T02:15:25;9.43;;;2.70;;
42632;SDS011;28261;53.304;-6.284;2023-05-29T02:17:31;11.93;;;2.80;;
42632;SDS011;28261;53.304;-6.284;2023-05-29T02:19:35;10.45;;;2.80;;
42632;SDS011;28261;53.304;-6.284;2023-05-29T02:21:38;9.57;;;2.50;;
42632;SDS011;28261;53.304;-6.284;2023-05-29T02:23:42;13.90;;;3.20;;
42632;SDS011;28261;53.304;-6.284;2023-05-29T02:25:47;13.52;;;2.72;;
42632;SDS011;28261;53.304;-6.284;2023-05-29T02:27:51;8.02;;;2.47;;
42632;SDS011;28261;53.304;-6.284;2023-05-29T02:29:54;9.32;;;2.35;;
42632;SDS011;28261;53.304;-6.284;2023-05-29T02:31:58;8.93;;;1.70;;
42632;SDS011;28261;53.304;-6.284;2023-05-29T02:34:02;9.13;;;2.53;;
42632;SDS011;28261;53.304;-6.284;2023-05-29T02:36:06;8.35;;;2.50;;
42632;SDS011;28261;53.304;-6.284;2023-05-29T02:38:11;12.38;;;3.22;;
42632;SDS011;28261;53.304;-6.284;2023-05-29T02:40:15;9.70;;;2.58;;
42632;SDS011;28261;53.304;-6.284;2023-05-29T02:42:18;10.77;;;2.42;;
42632;SDS011;28261;53.304;-6.284;2023-05-29T02:44:22;13.88;;;2.28;;
42632;SDS011;28261;53.304;-6.284;2023-05-29T02:46:25;12.25;;;2.88;;
42632;SDS011;28261;53.304;-6.284;2023-05-29T02:48:28;9.55;;;2.55;;
42632;SDS011;28261;53.304;-6.284;2023-05-29T02:50:33;7.22;;;2.28;;
42632;SDS011;28261;53.304;-6.284;2023-05-29T02:52:37;13.23;;;3.30;;
42632;SDS011;28261;53.304;-6.284;2023-05-29T02:54:41;7.43;;;2.65;;
42632;SDS011;28261;53.304;-6.284;2023-05-29T02:56:44;15.02;;;2.67;;
42632;SDS011;28261;53.304;-6.284;2023-05-29T02:58:48;8.93;;;2.13;;
42632;SDS011;28261;53.304;-6.284;2023-05-29T03:00:51;10.18;;;2.80;;
42632;SDS011;28261;53.304;-6.284;2023-05-29T03:02:55;8.68;;;2.28;;
42632;SDS011;28261;53.304;-6.284;2023-05-29T03:04:58;8.75;;;2.58;;
42632;SDS011;28261;53.304;-6.284;2023-05-29T03:07:03;9.70;;;2.17;;
42632;SDS011;28261;53.304;-6.284;2023-05-29T03:09:08;15.25;;;2.90;;
42632;SDS011;28261;53.304;-6.284;2023-05-29T03:11:11;12.55;;;2.85;;
42632;SDS011;28261;53.304;-6.284;2023-05-29T03:13:17;12.40;;;3.45;;
42632;SDS011;28261;53.304;-6.284;2023-05-29T03:15:28;15.93;;;2.50;;
42632;SDS011;28261;53.304;-6.284;2023-05-29T03:17:31;14.27;;;2.60;;
42632;SDS011;28261;53.304;-6.284;2023-05-29T03:19:35;15.60;;;2.90;;
42632;SDS011;28261;53.304;-6.284;2023-05-29T03:21:38;11.18;;;2.35;;
42632;SDS011;28261;53.304;-6.284;2023-05-29T03:23:43;8.75;;;2.35;;
42632;SDS011;28261;53.304;-6.284;2023-05-29T03:25:47;11.27;;;2.45;;
42632;SDS011;28261;53.304;-6.284;2023-05-29T03:27:52;11.40;;;2.75;;
42632;SDS011;28261;53.304;-6.284;2023-05-29T03:29:56;10.80;;;2.85;;
42632;SDS011;28261;53.304;-6.284;2023-05-29T03:32:00;11.68;;;2.80;;
42632;SDS011;28261;53.304;-6.284;2023-05-29T03:34:06;9.15;;;2.17;;
42632;SDS011;28261;53.304;-6.284;2023-05-29T03:36:15;12.48;;;2.42;;
42632;SDS011;28261;53.304;-6.284;2023-05-29T03:38:20;10.68;;;2.53;;
42632;SDS011;28261;53.304;-6.284;2023-05-29T03:40:25;8.07;;;2.05;;
42632;SDS011;28261;53.304;-6.284;2023-05-29T03:42:28;17.65;;;4.57;;
42632;SDS011;28261;53.304;-6.284;2023-05-29T03:44:33;9.43;;;3.00;;
42632;SDS011;28261;53.304;-6.284;2023-05-29T03:46:38;10.27;;;2.00;;
42632;SDS011;28261;53.304;-6.284;2023-05-29T03:48:42;16.00;;;3.60;;
42632;SDS011;28261;53.304;-6.284;2023-05-29T03:50:47;13.90;;;3.58;;
42632;SDS011;28261;53.304;-6.284;2023-05-29T03:52:59;4.50;;;2.33;;
42632;SDS011;28261;53.304;-6.284;2023-05-29T03:55:04;12.77;;;2.65;;
42632;SDS011;28261;53.304;-6.284;2023-05-29T03:57:16;12.63;;;2.15;;
42632;SDS011;28261;53.304;-6.284;2023-05-29T03:59:20;8.70;;;3.13;;
42632;SDS011;28261;53.304;-6.284;2023-05-29T04:01:24;16.50;;;3.28;;
42632;SDS011;28261;53.304;-6.284;2023-05-29T04:03:28;14.93;;;3.63;;
42632;SDS011;28261;53.304;-6.284;2023-05-29T04:07:36;8.45;;;2.60;;
42632;SDS011;28261;53.304;-6.284;2023-05-29T04:09:42;8.88;;;2.25;;
42632;SDS011;28261;53.304;-6.284;2023-05-29T04:11:46;9.13;;;2.50;;
42632;SDS011;28261;53.304;-6.284;2023-05-29T04:13:52;11.57;;;2.70;;
42632;SDS011;28261;53.304;-6.284;2023-05-29T04:15:56;12.30;;;2.88;;
42632;SDS011;28261;53.304;-6.284;2023-05-29T04:18:00;8.65;;;2.60;;
42632;SDS011;28261;53.304;-6.284;2023-05-29T04:20:05;16.92;;;3.05;;
42632;SDS011;28261;53.304;-6.284;2023-05-29T04:22:11;10.23;;;2.90;;
42632;SDS011;28261;53.304;-6.284;2023-05-29T04:24:16;12.68;;;2.60;;
42632;SDS011;28261;53.304;-6.284;2023-05-29T04:26:20;12.18;;;2.75;;
42632;SDS011;28261;53.304;-6.284;2023-05-29T04:28:28;11.32;;;2.42;;
42632;SDS011;28261;53.304;-6.284;2023-05-29T04:30:33;9.40;;;2.22;;
42632;SDS011;28261;53.304;-6.284;2023-05-29T04:32:37;6.45;;;2.45;;
42632;SDS011;28261;53.304;-6.284;2023-05-29T04:36:49;9.98;;;2.00;;
42632;SDS011;28261;53.304;-6.284;2023-05-29T04:38:52;14.60;;;2.80;;
42632;SDS011;28261;53.304;-6.284;2023-05-29T04:40:57;12.60;;;2.80;;
42632;SDS011;28261;53.304;-6.284;2023-05-29T04:43:03;12.52;;;2.53;;
42632;SDS011;28261;53.304;-6.284;2023-05-29T04:45:23;20.70;;;3.92;;
42632;SDS011;28261;53.304;-6.284;2023-05-29T04:47:29;16.10;;;3.05;;
42632;SDS011;28261;53.304;-6.284;2023-05-29T04:49:34;11.15;;;2.65;;
42632;SDS011;28261;53.304;-6.284;2023-05-29T04:51:40;12.20;;;3.22;;
42632;SDS011;28261;53.304;-6.284;2023-05-29T04:53:44;15.32;;;2.55;;
42632;SDS011;28261;53.304;-6.284;2023-05-29T04:55:48;9.40;;;2.85;;
42632;SDS011;28261;53.304;-6.284;2023-05-29T04:57:52;9.45;;;3.03;;
42632;SDS011;28261;53.304;-6.284;2023-05-29T04:59:58;13.40;;;2.70;;
42632;SDS011;28261;53.304;-6.284;2023-05-29T05:04:09;12.40;;;3.22;;
42632;SDS011;28261;53.304;-6.284;2023-05-29T05:06:13;11.65;;;3.15;;
42632;SDS011;28261;53.304;-6.284;2023-05-29T05:08:18;13.50;;;3.67;;
42632;SDS011;28261;53.304;-6.284;2023-05-29T05:10:22;13.65;;;3.50;;
42632;SDS011;28261;53.304;-6.284;2023-05-29T05:12:26;13.95;;;3.60;;
42632;SDS011;28261;53.304;-6.284;2023-05-29T05:14:30;14.20;;;2.55;;
42632;SDS011;28261;53.304;-6.284;2023-05-29T05:16:34;14.27;;;2.90;;
42632;SDS011;28261;53.304;-6.284;2023-05-29T05:18:38;12.68;;;2.83;;
42632;SDS011;28261;53.304;-6.284;2023-05-29T05:20:44;15.73;;;2.97;;
42632;SDS011;28261;53.304;-6.284;2023-05-29T05:22:49;15.20;;;3.35;;
42632;SDS011;28261;53.304;-6.284;2023-05-29T05:24:53;12.35;;;3.13;;
42632;SDS011;28261;53.304;-6.284;2023-05-29T05:29:02;14.43;;;3.08;;
42632;SDS011;28261;53.304;-6.284;2023-05-29T05:31:07;12.18;;;2.40;;
42632;SDS011;28261;53.304;-6.284;2023-05-29T05:33:11;11.57;;;2.63;;
42632;SDS011;28261;53.304;-6.284;2023-05-29T05:35:16;18.58;;;3.92;;
42632;SDS011;28261;53.304;-6.284;2023-05-29T05:37:23;15.93;;;3.35;;
42632;SDS011;28261;53.304;-6.284;2023-05-29T05:39:29;12.10;;;3.05;;
42632;SDS011;28261;53.304;-6.284;2023-05-29T05:43:38;13.43;;;3.95;;
42632;SDS011;28261;53.304;-6.284;2023-05-29T05:45:46;15.38;;;2.83;;
42632;SDS011;28261;53.304;-6.284;2023-05-29T05:47:50;15.55;;;3.00;;
42632;SDS011;28261;53.304;-6.284;2023-05-29T05:49:57;16.92;;;3.80;;
42632;SDS011;28261;53.304;-6.284;2023-05-29T05:52:01;19.65;;;4.03;;
42632;SDS011;28261;53.304;-6.284;2023-05-29T05:54:06;18.33;;;4.32;;
42632;SDS011;28261;53.304;-6.284;2023-05-29T05:56:10;19.30;;;4.50;;
42632;SDS011;28261;53.304;-6.284;2023-05-29T05:58:14;18.30;;;3.75;;
42632;SDS011;28261;53.304;-6.284;2023-05-29T06:00:19;15.48;;;4.00;;
42632;SDS011;28261;53.304;-6.284;2023-05-29T06:02:28;13.90;;;3.50;;
42632;SDS011;28261;53.304;-6.284;2023-05-29T06:04:32;14.70;;;3.92;;
42632;SDS011;28261;53.304;-6.284;2023-05-29T06:06:35;17.70;;;4.65;;
42632;SDS011;28261;53.304;-6.284;2023-05-29T06:08:39;17.00;;;3.80;;
42632;SDS011;28261;53.304;-6.284;2023-05-29T06:10:45;15.93;;;4.22;;
42632;SDS011;28261;53.304;-6.284;2023-05-29T06:12:49;18.40;;;6.22;;
42632;SDS011;28261;53.304;-6.284;2023-05-29T06:14:58;18.70;;;4.85;;
42632;SDS011;28261;53.304;-6.284;2023-05-29T06:17:02;17.42;;;4.35;;
42632;SDS011;28261;53.304;-6.284;2023-05-29T06:19:06;13.27;;;4.18;;
42632;SDS011;28261;53.304;-6.284;2023-05-29T06:21:26;14.98;;;3.45;;
42632;SDS011;28261;53.304;-6.284;2023-05-29T06:23:30;12.45;;;3.97;;
42632;SDS011;28261;53.304;-6.284;2023-05-29T06:25:36;20.90;;;4.80;;
42632;SDS011;28261;53.304;-6.284;2023-05-29T06:27:42;17.23;;;5.45;;
42632;SDS011;28261;53.304;-6.284;2023-05-29T06:29:46;14.43;;;5.80;;
42632;SDS011;28261;53.304;-6.284;2023-05-29T06:31:50;18.27;;;5.07;;
42632;SDS011;28261;53.304;-6.284;2023-05-29T06:33:54;12.70;;;4.97;;
42632;SDS011;28261;53.304;-6.284;2023-05-29T06:35:58;21.13;;;7.10;;
42632;SDS011;28261;53.304;-6.284;2023-05-29T06:38:04;19.13;;;4.63;;
42632;SDS011;28261;53.304;-6.284;2023-05-29T06:40:08;20.73;;;5.07;;
42632;SDS011;28261;53.304;-6.284;2023-05-29T06:42:13;11.75;;;5.40;;
42632;SDS011;28261;53.304;-6.284;2023-05-29T06:44:20;13.48;;;5.57;;
42632;SDS011;28261;53.304;-6.284;2023-05-29T06:46:24;16.27;;;5.05;;
42632;SDS011;28261;53.304;-6.284;2023-05-29T06:48:32;16.15;;;4.82;;
42632;SDS011;28261;53.304;-6.284;2023-05-29T06:50:35;14.45;;;4.57;;
42632;SDS011;28261;53.304;-6.284;2023-05-29T06:53:08;13.40;;;4.72;;
42632;SDS011;28261;53.304;-6.284;2023-05-29T06:55:22;11.20;;;4.60;;
42632;SDS011;28261;53.304;-6.284;2023-05-29T06:57:28;13.23;;;4.78;;
42632;SDS011;28261;53.304;-6.284;2023-05-29T06:59:33;16.85;;;5.45;;
42632;SDS011;28261;53.304;-6.284;2023-05-29T07:01:37;14.48;;;4.57;;
42632;SDS011;28261;53.304;-6.284;2023-05-29T07:03:42;12.77;;;4.85;;
42632;SDS011;28261;53.304;-6.284;2023-05-29T07:05:48;11.82;;;4.75;;
42632;SDS011;28261;53.304;-6.284;2023-05-29T07:07:51;13.88;;;4.85;;
42632;SDS011;28261;53.304;-6.284;2023-05-29T07:09:55;12.50;;;4.53;;
42632;SDS011;28261;53.304;-6.284;2023-05-29T07:11:59;12.48;;;4.30;;
42632;SDS011;28261;53.304;-6.284;2023-05-29T07:14:03;13.88;;;4.97;;
42632;SDS011;28261;53.304;-6.284;2023-05-29T07:16:09;15.23;;;5.15;;
42632;SDS011;28261;53.304;-6.284;2023-05-29T07:18:29;14.50;;;5.35;;
42632;SDS011;28261;53.304;-6.284;2023-05-29T07:20:35;13.98;;;4.90;;
42632;SDS011;28261;53.304;-6.284;2023-05-29T07:22:40;14.80;;;4.72;;
42632;SDS011;28261;53.304;-6.284;2023-05-29T07:24:45;13.10;;;4.18;;
42632;SDS011;28261;53.304;-6.284;2023-05-29T07:26:49;13.43;;;5.05;;
42632;SDS011;28261;53.304;-6.284;2023-05-29T07:28:53;11.70;;;4.57;;
42632;SDS011;28261;53.304;-6.284;2023-05-29T07:30:57;12.93;;;4.53;;
42632;SDS011;28261;53.304;-6.284;2023-05-29T07:35:08;12.23;;;4.43;;
42632;SDS011;28261;53.304;-6.284;2023-05-29T07:37:12;12.90;;;4.95;;
42632;SDS011;28261;53.304;-6.284;2023-05-29T07:39:16;12.77;;;4.85;;
42632;SDS011;28261;53.304;-6.284;2023-05-29T07:41:20;12.65;;;5.28;;
42632;SDS011;28261;53.304;-6.284;2023-05-29T07:43:27;12.65;;;4.53;;
42632;SDS011;28261;53.304;-6.284;2023-05-29T07:45:39;13.43;;;4.10;;
42632;SDS011;28261;53.304;-6.284;2023-05-29T07:47:42;12.00;;;4.47;;
42632;SDS011;28261;53.304;-6.284;2023-05-29T07:49:50;13.57;;;4.88;;
42632;SDS011;28261;53.304;-6.284;2023-05-29T07:51:57;10.60;;;4.53;;
42632;SDS011;28261;53.304;-6.284;2023-05-29T07:54:02;14.68;;;4.53;;
42632;SDS011;28261;53.304;-6.284;2023-05-29T07:56:06;13.38;;;5.38;;
42632;SDS011;28261;53.304;-6.284;2023-05-29T07:58:10;12.73;;;5.20;;
42632;SDS011;28261;53.304;-6.284;2023-05-29T08:00:15;12.93;;;5.10;;
42632;SDS011;28261;53.304;-6.284;2023-05-29T08:02:22;13.80;;;4.82;;
42632;SDS011;28261;53.304;-6.284;2023-05-29T08:04:56;9.75;;;4.43;;
42632;SDS011;28261;53.304;-6.284;2023-05-29T08:07:00;15.68;;;5.80;;
42632;SDS011;28261;53.304;-6.284;2023-05-29T08:09:05;17.30;;;5.68;;
42632;SDS011;28261;53.304;-6.284;2023-05-29T08:11:09;12.82;;;4.40;;
42632;SDS011;28261;53.304;-6.284;2023-05-29T08:13:14;10.15;;;4.22;;
42632;SDS011;28261;53.304;-6.284;2023-05-29T08:15:19;12.20;;;4.88;;
42632;SDS011;28261;53.304;-6.284;2023-05-29T08:17:24;8.93;;;4.63;;
42632;SDS011;28261;53.304;-6.284;2023-05-29T08:19:28;12.63;;;5.68;;
42632;SDS011;28261;53.304;-6.284;2023-05-29T08:21:34;17.95;;;4.95;;
42632;SDS011;28261;53.304;-6.284;2023-05-29T08:23:39;13.45;;;4.63;;
42632;SDS011;28261;53.304;-6.284;2023-05-29T08:25:43;11.65;;;5.15;;
42632;SDS011;28261;53.304;-6.284;2023-05-29T08:27:47;13.95;;;5.05;;
42632;SDS011;28261;53.304;-6.284;2023-05-29T08:29:51;15.30;;;5.63;;
42632;SDS011;28261;53.304;-6.284;2023-05-29T08:31:56;11.75;;;4.70;;
42632;SDS011;28261;53.304;-6.284;2023-05-29T08:34:00;13.23;;;5.10;;
42632;SDS011;28261;53.304;-6.284;2023-05-29T08:36:03;11.00;;;4.35;;
42632;SDS011;28261;53.304;-6.284;2023-05-29T08:38:09;17.02;;;5.03;;
42632;SDS011;28261;53.304;-6.284;2023-05-29T08:40:12;11.63;;;4.90;;
42632;SDS011;28261;53.304;-6.284;2023-05-29T08:42:18;11.32;;;4.43;;
42632;SDS011;28261;53.304;-6.284;2023-05-29T08:44:24;12.55;;;4.45;;
42632;SDS011;28261;53.304;-6.284;2023-05-29T08:46:32;12.65;;;4.50;;
42632;SDS011;28261;53.304;-6.284;2023-05-29T08:50:43;11.18;;;3.75;;
42632;SDS011;28261;53.304;-6.284;2023-05-29T08:52:48;12.80;;;4.18;;
42632;SDS011;28261;53.304;-6.284;2023-05-29T08:54:54;10.48;;;3.70;;
42632;SDS011;28261;53.304;-6.284;2023-05-29T08:57:00;12.80;;;4.22;;
42632;SDS011;28261;53.304;-6.284;2023-05-29T08:59:05;12.68;;;3.63;;
42632;SDS011;28261;53.304;-6.284;2023-05-29T09:01:10;15.88;;;4.35;;
42632;SDS011;28261;53.304;-6.284;2023-05-29T09:03:14;10.65;;;4.05;;
42632;SDS011;28261;53.304;-6.284;2023-05-29T09:05:18;8.10;;;3.95;;
42632;SDS011;28261;53.304;-6.284;2023-05-29T09:07:23;27.27;;;5.93;;
42632;SDS011;28261;53.304;-6.284;2023-05-29T09:09:27;12.73;;;3.75;;
42632;SDS011;28261;53.304;-6.284;2023-05-29T09:11:35;10.95;;;4.32;;
42632;SDS011;28261;53.304;-6.284;2023-05-29T09:13:38;9.75;;;3.97;;
42632;SDS011;28261;53.304;-6.284;2023-05-29T09:15:42;9.73;;;3.78;;
42632;SDS011;28261;53.304;-6.284;2023-05-29T09:17:49;9.20;;;3.20;;
42632;SDS011;28261;53.304;-6.284;2023-05-29T09:19:54;8.88;;;3.13;;
42632;SDS011;28261;53.304;-6.284;2023-05-29T09:22:01;15.10;;;3.45;;
42632;SDS011;28261;53.304;-6.284;2023-05-29T09:24:06;11.77;;;3.22;;
42632;SDS011;28261;53.304;-6.284;2023-05-29T09:26:09;10.15;;;2.25;;
42632;SDS011;28261;53.304;-6.284;2023-05-29T09:28:19;8.40;;;3.53;;
42632;SDS011;28261;53.304;-6.284;2023-05-29T09:30:32;12.85;;;3.10;;
42632;SDS011;28261;53.304;-6.284;2023-05-29T09:32:37;10.05;;;3.10;;
42632;SDS011;28261;53.304;-6.284;2023-05-29T09:34:43;9.30;;;2.85;;
42632;SDS011;28261;53.304;-6.284;2023-05-29T09:36:47;11.02;;;2.40;;
42632;SDS011;28261;53.304;-6.284;2023-05-29T09:38:53;11.95;;;2.60;;
42632;SDS011;28261;53.304;-6.284;2023-05-29T09:41:06;7.10;;;2.30;;
42632;SDS011;28261;53.304;-6.284;2023-05-29T09:43:10;12.85;;;2.58;;
42632;SDS011;28261;53.304;-6.284;2023-05-29T09:45:18;10.80;;;2.53;;
42632;SDS011;28261;53.304;-6.284;2023-05-29T09:47:23;11.20;;;3.17;;
42632;SDS011;28261;53.304;-6.284;2023-05-29T09:49:27;10.77;;;3.33;;
42632;SDS011;28261;53.304;-6.284;2023-05-29T09:51:31;9.27;;;3.00;;
42632;SDS011;28261;53.304;-6.284;2023-05-29T09:53:35;11.55;;;3.03;;
42632;SDS011;28261;53.304;-6.284;2023-05-29T09:55:45;12.07;;;2.50;;
42632;SDS011;28261;53.304;-6.284;2023-05-29T09:57:49;10.07;;;3.70;;
42632;SDS011;28261;53.304;-6.284;2023-05-29T09:59:53;12.35;;;3.15;;
42632;SDS011;28261;53.304;-6.284;2023-05-29T10:02:00;11.77;;;3.08;;
42632;SDS011;28261;53.304;-6.284;2023-05-29T10:04:05;6.80;;;2.53;;
42632;SDS011;28261;53.304;-6.284;2023-05-29T10:06:10;13.35;;;2.97;;
42632;SDS011;28261;53.304;-6.284;2023-05-29T10:08:18;21.15;;;3.20;;
42632;SDS011;28261;53.304;-6.284;2023-05-29T10:10:23;18.33;;;2.85;;
42632;SDS011;28261;53.304;-6.284;2023-05-29T10:12:30;10.93;;;2.88;;
42632;SDS011;28261;53.304;-6.284;2023-05-29T10:14:36;10.80;;;3.33;;
42632;SDS011;28261;53.304;-6.284;2023-05-29T10:16:41;13.68;;;2.97;;
42632;SDS011;28261;53.304;-6.284;2023-05-29T10:18:50;13.07;;;3.25;;
42632;SDS011;28261;53.304;-6.284;2023-05-29T10:20:58;9.23;;;3.22;;
42632;SDS011;28261;53.304;-6.284;2023-05-29T10:23:03;14.43;;;3.42;;
42632;SDS011;28261;53.304;-6.284;2023-05-29T10:25:08;13.60;;;3.50;;
42632;SDS011;28261;53.304;-6.284;2023-05-29T10:27:14;11.70;;;2.75;;
42632;SDS011;28261;53.304;-6.284;2023-05-29T10:29:19;10.85;;;3.03;;
42632;SDS011;28261;53.304;-6.284;2023-05-29T10:31:30;9.63;;;2.78;;
42632;SDS011;28261;53.304;-6.284;2023-05-29T10:33:47;8.80;;;2.80;;
42632;SDS011;28261;53.304;-6.284;2023-05-29T10:36:01;6.78;;;2.53;;
42632;SDS011;28261;53.304;-6.284;2023-05-29T10:38:13;8.18;;;2.65;;
42632;SDS011;28261;53.304;-6.284;2023-05-29T10:40:22;11.02;;;2.63;;
42632;SDS011;28261;53.304;-6.284;2023-05-29T10:42:43;10.38;;;2.88;;
42632;SDS011;28261;53.304;-6.284;2023-05-29T10:44:51;8.77;;;2.55;;
42632;SDS011;28261;53.304;-6.284;2023-05-29T10:47:01;8.63;;;2.60;;
42632;SDS011;28261;53.304;-6.284;2023-05-29T10:49:11;7.15;;;2.28;;
42632;SDS011;28261;53.304;-6.284;2023-05-29T10:51:26;7.65;;;2.75;;
42632;SDS011;28261;53.304;-6.284;2023-05-29T10:53:31;8.68;;;2.80;;
42632;SDS011;28261;53.304;-6.284;2023-05-29T10:55:35;6.72;;;2.40;;
42632;SDS011;28261;53.304;-6.284;2023-05-29T10:57:46;9.48;;;3.60;;
42632;SDS011;28261;53.304;-6.284;2023-05-29T10:59:57;8.75;;;2.45;;
42632;SDS011;28261;53.304;-6.284;2023-05-29T11:02:03;8.93;;;2.42;;
42632;SDS011;28261;53.304;-6.284;2023-05-29T11:06:35;11.65;;;2.83;;
42632;SDS011;28261;53.304;-6.284;2023-05-29T11:08:42;8.75;;;2.30;;
42632;SDS011;28261;53.304;-6.284;2023-05-29T11:10:57;7.63;;;2.17;;
42632;SDS011;28261;53.304;-6.284;2023-05-29T11:13:02;8.95;;;2.28;;
42632;SDS011;28261;53.304;-6.284;2023-05-29T11:15:09;6.50;;;2.30;;
42632;SDS011;28261;53.304;-6.284;2023-05-29T11:17:30;9.07;;;2.70;;
42632;SDS011;28261;53.304;-6.284;2023-05-29T11:19:37;6.45;;;2.45;;
42632;SDS011;28261;53.304;-6.284;2023-05-29T11:21:46;7.88;;;2.20;;
42632;SDS011;28261;53.304;-6.284;2023-05-29T11:24:02;8.20;;;2.10;;
42632;SDS011;28261;53.304;-6.284;2023-05-29T11:26:09;7.15;;;2.35;;
42632;SDS011;28261;53.304;-6.284;2023-05-29T11:28:13;6.35;;;2.15;;
42632;SDS011;28261;53.304;-6.284;2023-05-29T11:30:17;6.03;;;2.85;;
42632;SDS011;28261;53.304;-6.284;2023-05-29T11:32:21;9.32;;;3.65;;
42632;SDS011;28261;53.304;-6.284;2023-05-29T11:34:29;7.15;;;2.28;;
42632;SDS011;28261;53.304;-6.284;2023-05-29T11:38:40;6.65;;;2.50;;
42632;SDS011;28261;53.304;-6.284;2023-05-29T11:40:44;7.40;;;2.47;;
42632;SDS011;28261;53.304;-6.284;2023-05-29T11:42:47;5.68;;;2.33;;
42632;SDS011;28261;53.304;-6.284;2023-05-29T11:44:51;6.78;;;2.33;;
42632;SDS011;28261;53.304;-6.284;2023-05-29T11:47:01;6.70;;;2.08;;
42632;SDS011;28261;53.304;-6.284;2023-05-29T11:49:06;7.90;;;2.08;;
42632;SDS011;28261;53.304;-6.284;2023-05-29T11:51:10;6.88;;;1.92;;
42632;SDS011;28261;53.304;-6.284;2023-05-29T11:53:15;8.43;;;2.50;;
42632;SDS011;28261;53.304;-6.284;2023-05-29T11:55:20;9.50;;;3.15;;
42632;SDS011;28261;53.304;-6.284;2023-05-29T11:57:24;7.28;;;2.45;;
42632;SDS011;28261;53.304;-6.284;2023-05-29T11:59:30;6.22;;;2.50;;
42632;SDS011;28261;53.304;-6.284;2023-05-29T12:01:34;8.90;;;2.50;;
42632;SDS011;28261;53.304;-6.284;2023-05-29T12:03:38;9.07;;;2.22;;
42632;SDS011;28261;53.304;-6.284;2023-05-29T12:05:47;4.82;;;2.13;;
42632;SDS011;28261;53.304;-6.284;2023-05-29T12:07:55;5.47;;;2.30;;
42632;SDS011;28261;53.304;-6.284;2023-05-29T12:10:10;7.05;;;2.40;;
42632;SDS011;28261;53.304;-6.284;2023-05-29T12:12:14;8.75;;;2.17;;
42632;SDS011;28261;53.304;-6.284;2023-05-29T12:14:19;7.47;;;2.40;;
42632;SDS011;28261;53.304;-6.284;2023-05-29T12:16:23;6.40;;;1.67;;
42632;SDS011;28261;53.304;-6.284;2023-05-29T12:18:28;7.28;;;1.83;;
42632;SDS011;28261;53.304;-6.284;2023-05-29T12:20:32;8.80;;;2.55;;
42632;SDS011;28261;53.304;-6.284;2023-05-29T12:22:36;11.02;;;2.50;;
42632;SDS011;28261;53.304;-6.284;2023-05-29T12:24:40;9.07;;;2.80;;
42632;SDS011;28261;53.304;-6.284;2023-05-29T12:26:46;8.65;;;2.67;;
42632;SDS011;28261;53.304;-6.284;2023-05-29T12:28:50;7.38;;;2.85;;
42632;SDS011;28261;53.304;-6.284;2023-05-29T12:30:58;8.70;;;2.95;;
42632;SDS011;28261;53.304;-6.284;2023-05-29T12:33:02;9.80;;;2.58;;
42632;SDS011;28261;53.304;-6.284;2023-05-29T12:35:12;11.75;;;2.85;;
42632;SDS011;28261;53.304;-6.284;2023-05-29T12:37:20;9.05;;;2.58;;
42632;SDS011;28261;53.304;-6.284;2023-05-29T12:39:25;5.80;;;2.53;;